littlegreenfootballs.com alexa rank chart, littlegreenfootballs.com alexa rank daily changes

littlegreenfootballs.com alexa rank chart, littlegreenfootballs.com alexa rank daily changes

littlegreenfootballs.com
Actual rank:
440 987

RANK HISTORY

Date Rank Diff
2018/06/23 440 987 -22 530
2018/06/22 463 517 -2 334
2018/06/21 465 851 +176 049
2018/06/20 289 802 +119 699
2018/06/19 170 103 -208 993
2018/06/18 379 096 +106 870
2018/06/16 272 226 -181 963
2018/06/15 454 189 -107 613
2018/06/14 561 802 +169 207
2018/06/13 392 595 +117 511
2018/06/12 275 084 +78 517
2018/06/11 196 567 -47 012
2018/06/10 243 579 +60 512
2018/06/09 183 067 +17 936
2018/06/08 165 131 -308 068
2018/06/07 473 199 +237 416
2018/06/05 235 783 +112 679
2018/06/04 123 104 -524 948
2018/06/03 648 052 -235 805
2018/06/02 883 857 +582 664
2018/05/31 301 193 +47 058
2018/05/30 254 135 -734 355
2018/05/26 988 490 +525 923
2018/05/25 462 567 -243 041
2018/05/24 705 608 +404 599
2018/05/23 301 009 -24 827
2018/05/22 325 836 -397 297
2018/05/21 723 133 -50 583
2018/05/20 773 716 +519 922
2018/05/19 253 794 -102 632
2018/05/18 356 426 -194 316
2018/05/17 550 742 +63 809
2018/05/16 486 933 +230 322
2018/05/15 256 611 -311 265
2018/05/14 567 876 -422 808
2018/05/13 990 684 +435 875
2018/05/12 554 809 +171 234
2018/05/11 383 575 -212 700
2018/05/10 596 275 +325 263
2018/05/09 271 012 +29 701
2018/05/08 241 311 -187 929
2018/05/06 429 240 -482 462
2018/05/04 911 702 +406 446
2018/05/03 505 256 -74 645
2018/05/02 579 901 +97 620
2018/05/01 482 281 -9 007
2018/04/28 491 288 -430 932
2018/04/27 922 220 +710 736
2018/04/24 211 484

WIDGET FOR YOUR SITE

DOMAINS WITH THE NEAREST RANK

Domain Rank
joshsobelrigs.com 440 982
kindergartenmom.com 440 983
kinetic-revolution.com 440 984
kramergate.tumblr.com 440 985
landscapearchitecturemagazine.org 440 986
littlegreenfootballs.com 440 987
luxedecor.com 440 988
masqueradeatlanta.com 440 989
monmouthcollege.edu 440 990
nightvalepresents.com 440 991
nikonsportoptics.com 440 992

DOMAINS WITH THE NEAREST RANK BY TLD .com

Domain Rank
hdzeta.com 440 979
illinicare.com 440 981
joshsobelrigs.com 440 982
kindergartenmom.com 440 983
kinetic-revolution.com 440 984
littlegreenfootballs.com 440 987
luxedecor.com 440 988
masqueradeatlanta.com 440 989
nightvalepresents.com 440 991
nikonsportoptics.com 440 992
ninamariedesign.com 440 993